Time;durP1;ratioP1;P1;durP2;ratioP2;P2;SDS_P1;SDS_P2;PMS_P1;PMS_P2;Temp;Humidity;BMP_temperature;BMP_pressure;BME280_temperature;BME280_humidity;BME280_pressure;Samples;Min_cycle;Max_cycle;Signal;HPM_P1;HPM_P2
2022/09/10 00:01:27;;;;;;;0.73;0.27;;;17.10;99.90;;;;;;21071999;28;20224;-76
2022/09/10 00:11:30;;;;;;;0.40;0.30;;;;;;;;;;21072009;28;20208;-76
2022/09/10 00:21:33;;;;;;;0.23;0.20;;;;;;;;;;21051664;28;20208;-76
2022/09/10 00:31:35;;;;;;;0.20;0.20;;;;;;;;;;21070322;28;20247;-76
2022/09/10 00:41:39;;;;;;;1.70;0.40;;;16.80;99.90;;;;;;21070311;28;20216;-76
2022/09/10 00:51:41;;;;;;;0.20;0.20;;;;;;;;;;21068933;28;20257;-76
2022/09/10 01:01:43;;;;;;;0.63;0.20;;;;;;;;;;21050714;28;20213;-76
2022/09/10 01:12:01;;;;;;;1.70;0.30;;;;;;;;;;21032737;28;20250;-76
2022/09/10 01:22:07;;;;;;;0.20;0.20;;;;;;;;;;21047075;28;20224;-76
2022/09/10 01:32:14;;;;;;;0.50;0.20;;;;;;;;;;21049202;28;20231;-76
2022/09/10 01:42:19;;;;;;;0.10;0.10;;;;;;;;;;21031887;28;20274;-76
2022/09/10 01:52:32;;;;;;;0.40;0.27;;;16.70;99.90;;;;;;21048107;28;20262;-76
2022/09/10 02:02:53;;;;;;;0.37;0.33;;;;;;;;;;21047560;28;20208;-76
2022/09/10 02:12:55;;;;;;;0.30;0.20;;;;;;;;;;21047376;28;20217;-76
2022/09/10 02:23:20;;;;;;;0.30;0.17;;;;;;;;;;21052333;28;20277;-76
2022/09/10 02:33:22;;;;;;;0.20;0.20;;;;;;;;;;21045132;28;20263;-76
2022/09/10 02:43:28;;;;;;;0.50;0.20;;;16.50;99.90;;;;;;21059362;28;20224;-76
2022/09/10 02:53:34;;;;;;;0.20;0.20;;;;;;;;;;21060202;28;20269;-76
2022/09/10 03:03:39;;;;;;;2.10;0.30;;;;;;;;;;21058929;28;20236;-76
2022/09/10 03:13:44;;;;;;;0.40;0.20;;;16.60;99.90;;;;;;21042033;28;20598;-76
2022/09/10 03:23:49;;;;;;;0.40;0.30;;;16.60;99.90;;;;;;21047452;28;20277;-76
2022/09/10 03:34:00;;;;;;;0.23;0.20;;;;;;;;;;21055485;28;20217;-75
2022/09/10 03:44:04;;;;;;;1.20;0.37;;;;;;;;;;21056593;28;20246;-76
2022/09/10 03:54:06;;;;;;;0.83;0.30;;;;;;;;;;21039200;28;20698;-74
2022/09/10 04:04:09;;;;;;;0.80;0.20;;;;;;;;;;21038866;28;20663;-74
2022/09/10 04:14:11;;;;;;;0.43;0.40;;;;;;;;;;21053924;28;20213;-75
2022/09/10 04:24:16;;;;;;;0.40;0.30;;;;;;;;;;21052136;28;20273;-75
2022/09/10 04:34:18;;;;;;;1.20;0.43;;;;;;;;;;21051917;28;20225;-75
2022/09/10 04:44:20;;;;;;;0.17;0.17;;;;;;;;;;21050489;28;20242;-74
2022/09/10 04:54:22;;;;;;;0.60;0.20;;;;;;;;;;21017945;28;20224;-75
2022/09/10 05:04:24;;;;;;;0.20;0.20;;;16.30;99.90;;;;;;21051033;28;20281;-75
2022/09/10 05:14:28;;;;;;;0.53;0.20;;;;;;;;;;21066975;28;20608;-75
2022/09/10 05:24:33;;;;;;;0.30;0.30;;;;;;;;;;21029662;28;20273;-75
2022/09/10 05:34:38;;;;;;;0.63;0.30;;;;;;;;;;21045239;28;20281;-75
2022/09/10 05:44:40;;;;;;;2.10;0.37;;;;;;;;;;21064933;28;20748;-75
2022/09/10 05:54:43;;;;;;;0.30;0.20;;;;;;;;;;21064243;28;20702;-75
2022/09/10 06:04:46;;;;;;;0.57;0.30;;;;;;;;;;21063647;28;20212;-75
2022/09/10 06:14:49;;;;;;;0.60;0.30;;;;;;;;;;21063079;28;20668;-77
2022/09/10 06:24:54;;;;;;;1.13;0.37;;;;;;;;;;21051412;28;20232;-75
2022/09/10 06:34:56;;;;;;;0.30;0.20;;;;;;;;;;21024344;28;20267;-74
2022/09/10 06:44:59;;;;;;;0.50;0.30;;;;;;;;;;20999379;28;20212;-74
2022/09/10 06:55:27;;;;;;;1.43;0.50;;;;;;;;;;21061482;28;20236;-75
2022/09/10 07:05:31;;;;;;;2.77;0.40;;;16.70;99.90;;;;;;21077332;28;20216;-75
2022/09/10 07:15:35;;;;;;;1.57;0.50;;;;;;;;;;21058759;28;20200;-75
2022/09/10 07:25:37;;;;;;;0.73;0.30;;;;;;;;;;21046253;28;20217;-75
2022/09/10 07:35:41;;;;;;;1.50;0.40;;;;;;;;;;21017092;28;20258;-75
2022/09/10 07:45:44;;;;;;;1.13;0.30;;;;;;;;;;21022968;28;20278;-75
2022/09/10 07:55:46;;;;;;;0.20;0.20;;;;;;;;;;21056112;28;20242;-75
2022/09/10 08:05:49;;;;;;;2.83;0.67;;;;;;;;;;21055687;28;20274;-75
2022/09/10 08:15:51;;;;;;;1.33;0.50;;;;;;;;;;21053830;28;20220;-75
2022/09/10 08:25:54;;;;;;;1.07;0.30;;;;;;;;;;21052071;28;20208;-76
2022/09/10 08:35:59;;;;;;;0.33;0.33;;;;;;;;;;21051878;28;20261;-75
2022/09/10 08:46:04;;;;;;;0.97;0.40;;;;;;;;;;21052641;28;20208;-75
2022/09/10 08:56:13;;;;;;;0.80;0.30;;;17.50;99.90;;;;;;21069109;28;20212;-76
2022/09/10 09:06:38;;;;;;;1.33;0.40;;;17.60;99.90;;;;;;20972926;28;20228;-75
2022/09/10 09:17:28;;;;;;;1.07;0.53;;;17.70;99.90;;;;;;20962928;28;20197;-76
2022/09/10 09:27:35;;;;;;;1.50;0.77;;;;;;;;;;20956789;28;20217;-76
2022/09/10 09:37:40;;;;;;;3.30;0.40;;;17.70;99.90;;;;;;20962038;28;20201;-76
2022/09/10 09:47:44;;;;;;;1.17;0.50;;;;;;;;;;20991352;28;20221;-76
2022/09/10 09:57:47;;;;;;;1.07;0.40;;;;;;;;;;21028243;28;20639;-75
2022/09/10 10:07:49;;;;;;;1.03;0.50;;;17.50;99.90;;;;;;20996535;28;20229;-76
2022/09/10 10:17:52;;;;;;;0.77;0.40;;;;;;;;;;20990561;28;20233;-76
2022/09/10 10:27:53;;;;;;;0.77;0.30;;;;;;;;;;21025607;28;20691;-77
2022/09/10 10:37:59;;;;;;;0.93;0.33;;;;;;;;;;21062618;28;20273;-76
2022/09/10 10:48:11;;;;;;;1.93;0.40;;;18.10;99.90;;;;;;21038556;28;20265;-76
2022/09/10 10:58:54;;;;;;;2.40;0.63;;;17.90;99.90;;;;;;21065590;28;20302;-76
2022/09/10 11:09:00;;;;;;;4.17;1.27;;;;;;;;;;20893202;28;20305;-76
2022/09/10 11:19:11;;;;;;;2.37;0.50;;;18.00;99.90;;;;;;21031679;28;20274;-76
2022/09/10 11:29:15;;;;;;;0.60;0.40;;;;;;;;;;21050686;28;20687;-75
2022/09/10 11:39:23;;;;;;;1.37;0.40;;;;;;;;;;21065811;28;20246;-75
2022/09/10 11:49:31;;;;;;;1.17;0.40;;;;;;;;;;21072586;28;20349;-75
2022/09/10 11:59:40;;;;;;;0.43;0.40;;;;;;;;;;21027904;28;20236;-75
2022/09/10 12:10:05;;;;;;;1.17;0.40;;;18.20;99.90;;;;;;21069204;28;20277;-75
2022/09/10 12:20:17;;;;;;;1.23;0.47;;;18.20;99.90;;;;;;21052478;28;20225;-75
2022/09/10 12:30:22;;;;;;;0.80;0.50;;;;;;;;;;21071210;28;20224;-76
2022/09/10 12:40:24;;;;;;;0.73;0.37;;;;;;;;;;21032819;28;20250;-74
2022/09/10 12:50:32;;;;;;;1.50;0.40;;;;;;;;;;20962689;28;20749;-77
2022/09/10 13:00:41;;;;;;;1.13;0.30;;;;;;;;;;20941717;28;20221;-77
2022/09/10 13:10:45;;;;;;;0.87;0.30;;;;;;;;;;20905828;28;20630;-77
2022/09/10 13:20:47;;;;;;;0.40;0.30;;;;;;;;;;20897783;28;20240;-76
2022/09/10 13:30:57;;;;;;;0.20;0.20;;;;;;;;;;20880290;28;20211;-77
2022/09/10 13:41:32;;;;;;;1.43;0.30;;;;;;;;;;20858668;28;20589;-76
2022/09/10 13:51:47;;;;;;;0.17;0.10;;;;;;;;;;20860873;28;20234;-77
2022/09/10 14:01:53;;;;;;;0.10;0.10;;;18.70;99.90;;;;;;20895584;28;20249;-77
2022/09/10 14:11:58;;;;;;;0.87;0.27;;;;;;;;;;20880405;28;20926;-77
2022/09/10 14:22:00;;;;;;;0.53;0.20;;;;;;;;;;20908846;28;20206;-78
2022/09/10 14:32:26;;;;;;;0.20;0.20;;;19.40;99.90;;;;;;20916235;28;20214;-76
2022/09/10 14:42:33;;;;;;;0.53;0.30;;;;;;;;;;20926191;28;20780;-78
2022/09/10 14:52:36;;;;;;;0.83;0.20;;;;;;;;;;20915409;28;20327;-78
2022/09/10 15:02:40;;;;;;;0.40;0.30;;;19.10;99.90;;;;;;20899534;28;20256;-77
2022/09/10 15:12:45;;;;;;;0.30;0.20;;;;;;;;;;20939768;28;20221;-76
2022/09/10 15:22:47;;;;;;;0.20;0.20;;;;;;;;;;21061047;28;20216;-76
2022/09/10 15:32:50;;;;;;;0.87;0.23;;;;;;;;;;20994571;28;20209;-76
2022/09/10 15:42:52;;;;;;;0.30;0.20;;;;;;;;;;20968573;28;20229;-77
2022/09/10 15:52:55;;;;;;;0.23;0.23;;;;;;;;;;20984889;28;20628;-76
2022/09/10 16:02:56;;;;;;;0.53;0.30;;;;;;;;;;20985312;28;20626;-77
2022/09/10 16:12:58;;;;;;;1.00;0.20;;;;;;;;;;21030621;28;20254;-77
2022/09/10 16:23:00;;;;;;;0.50;0.30;;;;;;;;;;20977004;28;20256;-76
2022/09/10 16:33:02;;;;;;;0.20;0.20;;;;;;;;;;20979475;28;20237;-77
2022/09/10 16:43:03;;;;;;;0.23;0.17;;;;;;;;;;20959992;28;20243;-76
2022/09/10 16:53:05;;;;;;;0.70;0.30;;;;;;;;;;20981046;28;20220;-76
2022/09/10 17:03:08;;;;;;;0.20;0.20;;;;;;;;;;20979263;28;20233;-76
2022/09/10 17:13:10;;;;;;;0.80;0.30;;;;;;;;;;20977817;28;20211;-76
2022/09/10 17:23:12;;;;;;;0.30;0.20;;;;;;;;;;20972548;28;20228;-76
2022/09/10 17:33:14;;;;;;;1.10;0.50;;;;;;;;;;20972211;28;20209;-77
2022/09/10 17:43:16;;;;;;;0.47;0.33;;;;;;;;;;20953315;28;20217;-77
2022/09/10 17:53:19;;;;;;;0.77;0.40;;;;;;;;;;21000816;28;20270;-76
2022/09/10 18:03:20;;;;;;;0.43;0.30;;;;;;;;;;21005316;28;20366;-77
2022/09/10 18:13:23;;;;;;;1.83;0.60;;;;;;;;;;21053014;28;20542;-77
2022/09/10 18:23:24;;;;;;;0.80;0.33;;;;;;;;;;21050928;28;20613;-77
2022/09/10 18:33:27;;;;;;;1.07;0.60;;;18.40;99.90;;;;;;21001669;28;20221;-77
2022/09/10 18:43:32;;;;;;;0.77;0.33;;;;;;;;;;20975504;28;20225;-77
2022/09/10 18:53:34;;;;;;;0.37;0.30;;;;;;;;;;20993386;28;20225;-75
2022/09/10 19:03:37;;;;;;;1.90;0.63;;;;;;;;;;20990585;28;20538;-77
2022/09/10 19:13:39;;;;;;;0.87;0.40;;;;;;;;;;20986834;28;20206;-76
2022/09/10 19:23:40;;;;;;;0.60;0.40;;;;;;;;;;20982064;28;20217;-76
2022/09/10 19:33:43;;;;;;;1.47;0.33;;;;;;;;;;21009284;28;20563;-77
2022/09/10 19:43:46;;;;;;;0.30;0.30;;;;;;;;;;20985677;28;20355;-76
2022/09/10 19:53:48;;;;;;;0.60;0.40;;;;;;;;;;20983761;28;20235;-76
2022/09/10 20:03:52;;;;;;;0.70;0.37;;;18.00;99.90;;;;;;21016167;28;20319;-76
2022/09/10 20:14:06;;;;;;;1.70;0.50;;;;;;;;;;21014233;28;20208;-76
2022/09/10 20:24:09;;;;;;;0.43;0.33;;;18.20;99.90;;;;;;20987104;28;20768;-75
2022/09/10 20:34:15;;;;;;;0.93;0.30;;;;;;;;;;21009549;28;20272;-77
2022/09/10 20:44:18;;;;;;;0.93;0.50;;;;;;;;;;21019555;28;20266;-78
2022/09/10 20:54:20;;;;;;;0.40;0.20;;;;;;;;;;20983065;28;20224;-75
2022/09/10 21:04:22;;;;;;;0.37;0.30;;;;;;;;;;20961749;28;20205;-76
2022/09/10 21:14:25;;;;;;;2.87;0.40;;;;;;;;;;20961522;28;20282;-75
2022/09/10 21:24:27;;;;;;;0.47;0.40;;;;;;;;;;20970458;28;20221;-76
2022/09/10 21:34:31;;;;;;;0.70;0.40;;;;;;;;;;21035175;28;20263;-75
2022/09/10 21:44:33;;;;;;;0.63;0.40;;;;;;;;;;21043756;28;20800;-76
2022/09/10 21:54:35;;;;;;;0.50;0.43;;;;;;;;;;21061998;28;20236;-76
2022/09/10 22:04:37;;;;;;;0.37;0.30;;;;;;;;;;21061085;28;20240;-76
2022/09/10 22:14:39;;;;;;;0.50;0.30;;;;;;;;;;21043585;28;20250;-77
2022/09/10 22:24:41;;;;;;;0.93;0.50;;;;;;;;;;20978174;28;20229;-76
2022/09/10 22:34:44;;;;;;;1.07;0.50;;;;;;;;;;20980882;28;20213;-76
2022/09/10 22:44:46;;;;;;;0.93;0.60;;;;;;;;;;20974354;28;20216;-76
2022/09/10 22:54:48;;;;;;;1.23;0.40;;;;;;;;;;21046591;28;20225;-76
2022/09/10 23:04:50;;;;;;;0.80;0.67;;;;;;;;;;21080684;28;20285;-76
2022/09/10 23:14:52;;;;;;;0.73;0.53;;;;;;;;;;21078879;28;20592;-77
2022/09/10 23:24:54;;;;;;;1.63;0.87;;;;;;;;;;21060625;28;20236;-77
2022/09/10 23:34:55;;;;;;;0.30;0.30;;;;;;;;;;21027038;28;20217;-77
2022/09/10 23:44:57;;;;;;;0.63;0.53;;;;;;;;;;21077643;28;20238;-77
2022/09/10 23:54:59;;;;;;;2.50;0.80;;;;;;;;;;20990447;28;20222;-77
